| time (UTC) | temp F | wind direction | speed MPH | gust MPH | rain 1hr in | rain 24hr in | rain mn in | humidity % | barometer mb |
| 20260506033506 | 44 | 91 | 8.0 | 13.0 | 0.09 | 0.59 | 0.18 | 99 | 1003.3 |
| 20260506033006 | 44 | 90 | 5.0 | 13.0 | 0.06 | 0.56 | 0.14 | 99 | 1003.5 |
| 20260506032505 | 44 | 89 | 4.0 | 13.0 | 0.05 | 0.54 | 0.13 | 99 | 1003.5 |
| 20260506032005 | 44 | 85 | 2.0 | 11.0 | 0.05 | 0.54 | 0.13 | 99 | 1003.5 |
| 20260506031505 | 44 | 85 | 4.0 | 14.0 | 0.05 | 0.54 | 0.13 | 99 | 1003.6 |
| 20260506031006 | 44 | 90 | 3.0 | 14.0 | 0.05 | 0.54 | 0.13 | 99 | 1003.7 |
| 20260506030505 | 44 | 87 | 4.0 | 13.0 | 0.05 | 0.53 | 0.12 | 99 | 1003.7 |
| 20260506030005 | 44 | 89 | 4.0 | 8.0 | 0.04 | 0.52 | 0.11 | 99 | 1003.9 |
| 20260506025506 | 44 | 91 | 4.0 | 13.0 | 0.02 | 0.51 | 0.09 | 99 | 1003.7 |
| 20260506025006 | 44 | 87 | 2.0 | 13.0 | 0.01 | 0.50 | 0.08 | 99 | 1004.2 |
| 20260506024505 | 44 | 82 | 4.0 | 13.0 | 0.01 | 0.50 | 0.08 | 99 | 1004.1 |
| 20260506024006 | 44 | 77 | 6.0 | 11.0 | 0.01 | 0.50 | 0.08 | 99 | 1004.0 |
| 20260506023505 | 44 | 84 | 3.0 | 11.0 | 0.01 | 0.50 | 0.08 | 99 | 1004.1 |
| 20260506023006 | 44 | 90 | 3.0 | 8.0 | 0.01 | 0.50 | 0.08 | 99 | 1004.0 |
| 20260506022505 | 44 | 77 | 4.0 | 16.0 | 0.01 | 0.50 | 0.08 | 99 | 1004.3 |
| 20260506022005 | 44 | 73 | 4.0 | 16.0 | 0.01 | 0.50 | 0.08 | 99 | 1004.4 |
| 20260506021506 | 44 | 88 | 4.0 | 13.0 | 0.01 | 0.50 | 0.08 | 99 | 1004.3 |
| 20260506021005 | 44 | 91 | 3.0 | 11.0 | 0.01 | 0.50 | 0.08 | 99 | 1004.3 |
| 20260506020506 | 44 | 67 | 4.0 | 11.0 | 0.00 | 0.48 | 0.07 | 99 | 1004.4 |
| 20260506020005 | 44 | 65 | 3.0 | 11.0 | 0.00 | 0.48 | 0.07 | 99 | 1004.5 |
| 20260506015506 | 44 | 76 | 3.0 | 8.0 | 0.00 | 0.48 | 0.07 | 99 | 1004.2 |
| 20260506015006 | 44 | 88 | 4.0 | 8.0 | 0.00 | 0.48 | 0.07 | 99 | 1004.4 |
| 20260506014505 | 44 | 90 | 2.0 | 8.0 | 0.00 | 0.48 | 0.07 | 99 | 1004.5 |
| 20260506014006 | 44 | 94 | 4.0 | 6.0 | 0.00 | 0.48 | 0.07 | 99 | 1004.5 |
| 20260506013506 | 44 | 75 | 2.0 | 8.0 | 0.00 | 0.48 | 0.07 | 99 | 1004.5 |
| 20260506013005 | 44 | 61 | 1.0 | 8.0 | 0.00 | 0.48 | 0.07 | 99 | 1004.5 |
| 20260506012506 | 44 | 71 | 3.0 | 11.0 | 0.00 | 0.48 | 0.07 | 99 | 1004.6 |
| 20260506012005 | 44 | 77 | 3.0 | 11.0 | 0.00 | 0.48 | 0.07 | 99 | 1004.7 |
| 20260506011505 | 44 | 74 | 4.0 | 11.0 | 0.00 | 0.48 | 0.07 | 99 | 1004.8 |
| 20260506011006 | 44 | 79 | 2.0 | 8.0 | 0.00 | 0.48 | 0.07 | 99 | 1004.7 |
| 20260506010505 | 44 | 85 | 3.0 | 8.0 | 0.01 | 0.48 | 0.07 | 99 | 1004.8 |
| 20260506010006 | 44 | 84 | 4.0 | 8.0 | 0.01 | 0.48 | 0.07 | 99 | 1004.8 |
| 20260506005505 | 44 | 81 | 2.0 | 8.0 | 0.04 | 0.48 | 0.07 | 99 | 1004.9 |
| 20260506005006 | 44 | 80 | 2.0 | 9.0 | 0.04 | 0.48 | 0.07 | 99 | 1005.1 |
| 20260506003505 | 44 | 82 | 4.0 | 11.0 | 0.07 | 0.48 | 0.07 | 99 | 1005.2 |
| 20260506003005 | 44 | 80 | 4.0 | 8.0 | 0.07 | 0.48 | 0.07 | 99 | 1005.1 |
| 20260506002506 | 44 | 83 | 2.0 | 8.0 | 0.07 | 0.48 | 0.07 | 99 | 1005.1 |
| 20260506001506 | 44 | 86 | 4.0 | 9.0 | 0.07 | 0.48 | 0.07 | 99 | 1005.2 |
| 20260506001005 | 44 | 77 | 4.0 | 9.0 | 0.07 | 0.48 | 0.07 | 99 | 1005.1 |
| 20260506000505 | 44 | 77 | 2.0 | 4.0 | 0.06 | 0.47 | 0.06 | 99 | 1005.3 |
| 20260505235505 | 44 | 84 | 2.0 | 8.0 | 0.04 | 0.45 | 0.04 | 99 | 1005.5 |
| 20260505235005 | 44 | 86 | 2.0 | 6.0 | 0.04 | 0.45 | 0.04 | 99 | 1005.5 |
| 20260505234506 | 44 | 87 | 2.0 | 6.0 | 0.02 | 0.44 | 0.02 | 99 | 1005.6 |
| 20260505234006 | 44 | 82 | 2.0 | 6.0 | 0.00 | 0.41 | 0.00 | 99 | 1005.6 |
| 20260505233505 | 44 | 85 | 2.0 | 6.0 | 0.00 | 0.41 | 0.00 | 99 | 1005.6 |
| 20260505233005 | 44 | 90 | 2.0 | 6.0 | 0.00 | 0.41 | 0.00 | 99 | 1005.5 |
| 20260505232506 | 44 | 83 | 2.0 | 6.0 | 0.00 | 0.41 | 0.00 | 99 | 1005.7 |
| 20260505231506 | 44 | 94 | 2.0 | 6.0 | 0.00 | 0.41 | 0.00 | 99 | 1005.8 |
| 20260505231005 | 44 | 91 | 2.0 | 4.0 | 0.00 | 0.41 | 0.00 | 99 | 1006.0 |
| 20260505230506 | 44 | 90 | 2.0 | 6.0 | 0.00 | 0.41 | 0.00 | 99 | 1005.9 |
| 20260505230005 | 44 | 90 | 2.0 | 6.0 | 0.00 | 0.41 | 0.00 | 99 | 1005.8 |
| 20260505225505 | 44 | 91 | 2.0 | 7.0 | 0.00 | 0.41 | 0.00 | 99 | 1005.8 |
| 20260505225005 | 44 | 102 | 3.0 | 7.0 | 0.00 | 0.41 | 0.00 | 99 | 1005.6 |
| 20260505224506 | 44 | 109 | 3.0 | 7.0 | 0.00 | 0.41 | 0.00 | 99 | 1006.0 |
| 20260505224005 | 44 | 97 | 2.0 | 6.0 | 0.00 | 0.41 | 0.00 | 99 | 1006.1 |
| 20260505223506 | 44 | 89 | 2.0 | 6.0 | 0.00 | 0.41 | 0.00 | 99 | 1005.9 |
| 20260505223006 | 44 | 95 | 3.0 | 6.0 | 0.00 | 0.41 | 0.00 | 99 | 1005.7 |
| 20260505222505 | 44 | 95 | 2.0 | 6.0 | 0.01 | 0.41 | 0.00 | 99 | 1005.9 |
| 20260505222005 | 44 | 86 | 2.0 | 6.0 | 0.01 | 0.41 | 0.00 | 99 | 1006.0 |
| 20260505221505 | 44 | 84 | 1.0 | 4.0 | 0.02 | 0.41 | 0.00 | 99 | 1005.9 |
| 20260505221006 | 44 | 81 | 2.0 | 6.0 | 0.02 | 0.41 | 0.00 | 99 | 1005.9 |
| 20260505220009 | 44 | 89 | 1.0 | 4.0 | 0.02 | 0.41 | 0.00 | 99 | 1006.2 |
| 20260505215506 | 44 | 87 | 2.0 | 4.0 | 0.02 | 0.41 | 0.41 | 99 | 1006.1 |
| 20260505215005 | 44 | 83 | 2.0 | 11.0 | 0.02 | 0.41 | 0.41 | 99 | 1006.1 |
| 20260505214506 | 44 | 81 | 2.0 | 11.0 | 0.02 | 0.41 | 0.41 | 99 | 1006.1 |
| 20260505213506 | 44 | 76 | 4.0 | 8.0 | 0.06 | 0.41 | 0.41 | 99 | 1006.2 |
| 20260505213005 | 44 | 79 | 1.0 | 8.0 | 0.07 | 0.41 | 0.41 | 99 | 1006.4 |
| 20260505212506 | 44 | 89 | 3.0 | 9.0 | 0.06 | 0.40 | 0.40 | 99 | 1006.3 |
| 20260505211505 | 44 | 86 | 3.0 | 7.0 | 0.05 | 0.39 | 0.39 | 99 | 1006.3 |
| 20260505211006 | 44 | 85 | 0.0 | 8.0 | 0.05 | 0.39 | 0.39 | 99 | 1006.4 |
| 20260505210505 | 44 | 81 | 3.0 | 8.0 | 0.06 | 0.39 | 0.39 | 99 | 1006.5 |
| 20260505210006 | 44 | 85 | 3.0 | 9.0 | 0.06 | 0.39 | 0.39 | 99 | 1006.4 |
| 20260505205505 | 44 | 77 | 2.0 | 11.0 | 0.06 | 0.39 | 0.39 | 99 | 1006.5 |
| 20260505205006 | 44 | 76 | 2.0 | 11.0 | 0.06 | 0.39 | 0.39 | 99 | 1006.5 |
| 20260505204505 | 44 | 80 | 2.0 | 7.0 | 0.06 | 0.39 | 0.39 | 99 | 1006.5 |
| 20260505204006 | 44 | 73 | 3.0 | 7.0 | 0.05 | 0.38 | 0.38 | 99 | 1006.6 |
| 20260505203505 | 44 | 78 | 3.0 | 7.0 | 0.04 | 0.35 | 0.35 | 99 | 1006.5 |
| 20260505203006 | 44 | 88 | 4.0 | 6.0 | 0.02 | 0.34 | 0.34 | 99 | 1006.5 |
| 20260505202505 | 44 | 91 | 2.0 | 7.0 | 0.02 | 0.34 | 0.34 | 99 | 1006.4 |
| 20260505201505 | 44 | 92 | 3.0 | 7.0 | 0.04 | 0.34 | 0.34 | 99 | 1006.6 |
| 20260505201006 | 44 | 74 | 4.0 | 7.0 | 0.02 | 0.33 | 0.33 | 99 | 1006.6 |
| 20260505200505 | 44 | 73 | 2.0 | 8.0 | 0.02 | 0.33 | 0.33 | 99 | 1006.4 |
| 20260505200006 | 44 | 83 | 3.0 | 8.0 | 0.02 | 0.33 | 0.33 | 99 | 1006.6 |
| 20260505195006 | 44 | 76 | 4.0 | 9.0 | 0.02 | 0.33 | 0.33 | 99 | 1006.3 |
| 20260505194006 | 44 | 88 | 2.0 | 8.0 | 0.02 | 0.33 | 0.33 | 99 | 1006.0 |
| 20260505193506 | 44 | 92 | 4.0 | 8.0 | 0.01 | 0.32 | 0.32 | 99 | 1006.2 |
| 20260505193006 | 44 | 90 | 2.0 | 7.0 | 0.01 | 0.32 | 0.32 | 99 | 1006.2 |
| 20260505192505 | 44 | 81 | 2.0 | 7.0 | 0.01 | 0.32 | 0.32 | 99 | 1006.5 |
| 20260505192006 | 44 | 80 | 4.0 | 7.0 | 0.02 | 0.32 | 0.32 | 99 | 1006.2 |
| 20260505191505 | 44 | 78 | 2.0 | 7.0 | 0.02 | 0.31 | 0.31 | 99 | 1006.3 |
| 20260505191006 | 44 | 80 | 3.0 | 11.0 | 0.02 | 0.31 | 0.31 | 99 | 1006.3 |
| 20260505190505 | 44 | 80 | 3.0 | 11.0 | 0.02 | 0.31 | 0.31 | 99 | 1006.1 |
| 20260505185505 | 44 | 83 | 3.0 | 8.0 | 0.02 | 0.31 | 0.31 | 99 | 1006.0 |
| 20260505185006 | 44 | 74 | 2.0 | 4.0 | 0.04 | 0.31 | 0.31 | 99 | 1005.9 |
| 20260505184505 | 44 | 75 | 2.0 | 11.0 | 0.04 | 0.31 | 0.31 | 99 | 1006.1 |
| 20260505183505 | 44 | 73 | 3.0 | 8.0 | 0.04 | 0.31 | 0.31 | 99 | 1006.2 |
| 20260505183006 | 44 | 67 | 3.0 | 11.0 | 0.04 | 0.31 | 0.31 | 99 | 1006.1 |
| 20260505182006 | 44 | 78 | 2.0 | 8.0 | 0.02 | 0.30 | 0.30 | 99 | 1006.0 |
| 20260505181505 | 44 | 78 | 3.0 | 7.0 | 0.01 | 0.28 | 0.28 | 99 | 1006.2 |
| 20260505180506 | 44 | 86 | 1.0 | 9.0 | 0.02 | 0.28 | 0.28 | 99 | 1006.1 |
| 20260505180006 | 44 | 84 | 2.0 | 9.0 | 0.02 | 0.28 | 0.28 | 99 | 1006.1 |
| 20260505175505 | 44 | 81 | 3.0 | 9.0 | 0.02 | 0.28 | 0.28 | 99 | 1006.0 |
| 20260505175005 | 44 | 82 | 2.0 | 6.0 | 0.01 | 0.27 | 0.27 | 99 | 1006.1 |
| 20260505174006 | 44 | 75 | 2.0 | 6.0 | 0.01 | 0.27 | 0.27 | 99 | 1006.0 |
| 20260505173506 | 43 | 77 | 2.0 | 6.0 | 0.01 | 0.27 | 0.27 | 99 | 1006.2 |
| 20260505173006 | 44 | 83 | 2.0 | 6.0 | 0.01 | 0.27 | 0.27 | 99 | 1006.1 |
| 20260505172006 | 43 | 78 | 1.0 | 7.0 | 0.01 | 0.27 | 0.27 | 99 | 1006.1 |
| 20260505171506 | 43 | 73 | 2.0 | 7.0 | 0.01 | 0.27 | 0.27 | 99 | 1006.1 |
| 20260505171006 | 43 | 76 | 2.0 | 4.0 | 0.01 | 0.27 | 0.27 | 99 | 1006.1 |
| 20260505170505 | 43 | 76 | 2.0 | 4.0 | 0.00 | 0.26 | 0.26 | 99 | 1006.1 |
| 20260505170006 | 43 | 77 | 2.0 | 6.0 | 0.00 | 0.26 | 0.26 | 99 | 1006.0 |
| 20260505165506 | 43 | 77 | 2.0 | 6.0 | 0.00 | 0.26 | 0.26 | 99 | 1006.1 |
| 20260505165005 | 43 | 74 | 1.0 | 9.0 | 0.00 | 0.26 | 0.26 | 99 | 1005.9 |
| 20260505164506 | 43 | 82 | 2.0 | 9.0 | 0.00 | 0.26 | 0.26 | 99 | 1006.2 |
| 20260505164006 | 43 | 86 | 1.0 | 9.0 | 0.00 | 0.26 | 0.26 | 99 | 1005.8 |
| 20260505163505 | 43 | 74 | 2.0 | 9.0 | 0.00 | 0.26 | 0.26 | 99 | 1006.2 |
| 20260505163007 | 43 | 70 | 3.0 | 9.0 | 0.00 | 0.26 | 0.26 | 99 | 1006.0 |
| 20260505162506 | 43 | 74 | 2.0 | 4.0 | 0.00 | 0.26 | 0.26 | 99 | 1006.1 |
| 20260505162006 | 43 | 83 | 2.0 | 6.0 | 0.00 | 0.26 | 0.26 | 99 | 1006.1 |
| 20260505161505 | 43 | 86 | 2.0 | 9.0 | 0.00 | 0.26 | 0.26 | 99 | 1006.0 |
| 20260505161005 | 43 | 78 | 1.0 | 9.0 | 0.00 | 0.26 | 0.26 | 99 | 1006.4 |
| 20260505160505 | 43 | 77 | 2.0 | 8.0 | 0.00 | 0.26 | 0.26 | 99 | 1006.2 |
| 20260505153006 | 43 | 73 | 2.0 | 8.0 | 0.01 | 0.26 | 0.26 | 99 | 1006.4 |
| 20260505152505 | 43 | 77 | 2.0 | 11.0 | 0.01 | 0.26 | 0.26 | 99 | 1006.4 |
| 20260505152006 | 43 | 79 | 4.0 | 11.0 | 0.01 | 0.26 | 0.26 | 99 | 1006.2 |
| 20260505151506 | 43 | 74 | 2.0 | 11.0 | 0.01 | 0.26 | 0.26 | 99 | 1006.4 |
| 20260505151005 | 43 | 70 | 6.0 | 11.0 | 0.02 | 0.26 | 0.26 | 99 | 1006.4 |
| 20260505150506 | 43 | 81 | 4.0 | 8.0 | 0.02 | 0.26 | 0.26 | 99 | 1006.3 |
| 20260505140506 | 43 | 90 | 1.0 | 6.0 | 0.02 | 0.24 | 0.24 | 99 | 1006.4 |
| 20260505124506 | 42 | 75 | 4.0 | 11.0 | 0.01 | 0.21 | 0.21 | 99 | 1006.8 |
| 20260505124006 | 42 | 72 | 2.0 | 11.0 | 0.01 | 0.21 | 0.21 | 99 | 1006.6 |
| 20260505123505 | 42 | 73 | 4.0 | 11.0 | 0.01 | 0.21 | 0.21 | 99 | 1006.5 |
| 20260505122505 | 42 | 70 | 2.0 | 11.0 | 0.01 | 0.21 | 0.21 | 99 | 1006.9 |
| 20260505121505 | 42 | 68 | 4.0 | 8.0 | 0.00 | 0.20 | 0.20 | 99 | 1006.6 |
| 20260505121005 | 42 | 62 | 2.0 | 6.0 | 0.00 | 0.20 | 0.20 | 99 | 1006.8 |
| 20260505120006 | 42 | 62 | 3.0 | 7.0 | 0.00 | 0.20 | 0.20 | 99 | 1006.8 |
| 20260505115505 | 42 | 57 | 3.0 | 4.0 | 0.00 | 0.20 | 0.20 | 99 | 1006.7 |
| 20260505115006 | 42 | 49 | 2.0 | 4.0 | 0.00 | 0.20 | 0.20 | 99 | 1006.6 |
| 20260505114505 | 42 | 52 | 2.0 | 4.0 | 0.00 | 0.20 | 0.20 | 99 | 1007.0 |
| 20260505114006 | 42 | 61 | 2.0 | 6.0 | 0.00 | 0.20 | 0.20 | 99 | 1006.8 |
| 20260505113006 | 42 | 57 | 2.0 | 6.0 | 0.00 | 0.20 | 0.20 | 99 | 1006.9 |
| 20260505112505 | 42 | 68 | 3.0 | 8.0 | 0.00 | 0.20 | 0.20 | 99 | 1006.8 |
| 20260505112006 | 42 | 77 | 3.0 | 8.0 | 0.00 | 0.20 | 0.20 | 99 | 1006.7 |
| 20260505111505 | 42 | 73 | 2.0 | 9.0 | 0.00 | 0.20 | 0.20 | 99 | 1007.1 |
| 20260505111006 | 42 | 67 | 3.0 | 9.0 | 0.00 | 0.20 | 0.20 | 99 | 1006.9 |
| 20260505110506 | 42 | 68 | 3.0 | 7.0 | 0.00 | 0.20 | 0.20 | 99 | 1007.0 |
| 20260505102005 | 42 | 55 | 3.0 | 6.0 | 0.01 | 0.20 | 0.20 | 99 | 1006.8 |
| 20260505101506 | 42 | 51 | 3.0 | 13.0 | 0.01 | 0.20 | 0.20 | 99 | 1006.8 |
| 20260505101006 | 42 | 62 | 3.0 | 13.0 | 0.01 | 0.20 | 0.20 | 99 | 1006.9 |
| 20260505100505 | 42 | 67 | 4.0 | 13.0 | 0.02 | 0.20 | 0.20 | 99 | 1007.0 |
| 20260505100006 | 42 | 64 | 4.0 | 8.0 | 0.02 | 0.20 | 0.20 | 99 | 1006.8 |
| 20260505095505 | 42 | 72 | 3.0 | 8.0 | 0.02 | 0.20 | 0.20 | 99 | 1006.8 |
| 20260505095006 | 42 | 68 | 2.0 | 7.0 | 0.02 | 0.20 | 0.20 | 99 | 1007.1 |
| 20260505094505 | 42 | 65 | 2.0 | 7.0 | 0.01 | 0.19 | 0.19 | 99 | 1006.9 |
| 20260505094006 | 41 | 75 | 4.0 | 7.0 | 0.01 | 0.19 | 0.19 | 99 | 1007.0 |
| 20260505093505 | 42 | 70 | 2.0 | 9.0 | 0.01 | 0.19 | 0.19 | 99 | 1007.2 |
| 20260505092505 | 41 | 78 | 4.0 | 14.0 | 0.02 | 0.19 | 0.19 | 99 | 1007.1 |
| 20260505092005 | 41 | 82 | 8.0 | 14.0 | 0.02 | 0.19 | 0.19 | 99 | 1007.1 |
| 20260505091506 | 41 | 73 | 4.0 | 13.0 | 0.02 | 0.19 | 0.19 | 99 | 1007.1 |
| 20260505091005 | 41 | 78 | 4.0 | 13.0 | 0.04 | 0.19 | 0.19 | 99 | 1006.9 |
| 20260505090506 | 42 | 88 | 5.0 | 13.0 | 0.02 | 0.18 | 0.18 | 99 | 1007.0 |
| 20260505085506 | 42 | 68 | 2.0 | 18.0 | 0.02 | 0.18 | 0.18 | 99 | 1006.8 |
| 20260505085005 | 42 | 74 | 2.0 | 16.0 | 0.02 | 0.18 | 0.18 | 99 | 1006.9 |
| 20260505084506 | 42 | 72 | 4.0 | 16.0 | 0.02 | 0.18 | 0.18 | 99 | 1006.9 |
| 20260505084005 | 42 | 80 | 8.0 | 16.0 | 0.02 | 0.18 | 0.18 | 99 | 1006.7 |
| 20260505083506 | 42 | 84 | 10.0 | 16.0 | 0.02 | 0.18 | 0.18 | 99 | 1006.4 |
| 20260505083005 | 42 | 73 | 6.0 | 15.0 | 0.02 | 0.17 | 0.17 | 99 | 1006.9 |
| 20260505081506 | 42 | 65 | 2.0 | 14.0 | 0.06 | 0.17 | 0.17 | 99 | 1006.6 |
| 20260505080006 | 42 | 62 | 5.0 | 16.0 | 0.08 | 0.15 | 0.15 | 99 | 1006.6 |
| 20260505075505 | 42 | 63 | 2.0 | 11.0 | 0.09 | 0.15 | 0.15 | 99 | 1006.9 |
| 20260505075006 | 42 | 62 | 5.0 | 17.0 | 0.11 | 0.15 | 0.15 | 99 | 1006.7 |
| 20260505074006 | 42 | 66 | 4.0 | 18.0 | 0.13 | 0.15 | 0.15 | 99 | 1006.7 |
| 20260505073505 | 42 | 73 | 5.0 | 18.0 | 0.13 | 0.15 | 0.15 | 99 | 1006.6 |
| 20260505073005 | 42 | 72 | 4.0 | 11.0 | 0.12 | 0.14 | 0.14 | 99 | 1006.8 |
| 20260505072005 | 41 | 95 | 6.0 | 14.0 | 0.09 | 0.12 | 0.12 | 99 | 1006.6 |
| 20260505071506 | 41 | 93 | 4.0 | 16.0 | 0.08 | 0.11 | 0.11 | 99 | 1006.9 |
| 20260505071005 | 42 | 84 | 7.0 | 16.0 | 0.07 | 0.09 | 0.09 | 99 | 1006.6 |
| 20260505070506 | 42 | 77 | 7.0 | 13.0 | 0.07 | 0.08 | 0.08 | 99 | 1006.6 |
| 20260505070006 | 42 | 71 | 5.0 | 11.0 | 0.06 | 0.07 | 0.07 | 99 | 1006.8 |
| 20260505065006 | 42 | 72 | 3.0 | 9.0 | 0.04 | 0.05 | 0.05 | 99 | 1006.9 |
| 20260505064505 | 42 | 79 | 3.0 | 8.0 | 0.02 | 0.04 | 0.04 | 99 | 1006.9 |
| 20260505064006 | 42 | 80 | 3.0 | 9.0 | 0.01 | 0.02 | 0.02 | 99 | 1007.0 |
| 20260505063505 | 42 | 73 | 4.0 | 11.0 | 0.01 | 0.02 | 0.02 | 99 | 1007.0 |
| 20260505062505 | 43 | 82 | 3.0 | 9.0 | 0.02 | 0.02 | 0.02 | 98 | 1007.0 |
| 20260505061005 | 43 | 67 | 2.0 | 9.0 | 0.02 | 0.02 | 0.02 | 97 | 1006.8 |
| 20260505060505 | 43 | 65 | 4.0 | 9.0 | 0.01 | 0.01 | 0.01 | 97 | 1006.8 |
| 20260505060005 | 43 | 66 | 4.0 | 9.0 | 0.01 | 0.01 | 0.01 | 96 | 1006.7 |
| 20260505055505 | 43 | 62 | 4.0 | 9.0 | 0.01 | 0.01 | 0.01 | 93 | 1006.9 |
| 20260505055006 | 43 | 59 | 4.0 | 11.0 | 0.01 | 0.01 | 0.01 | 93 | 1006.8 |
| 20260505054505 | 43 | 71 | 4.0 | 11.0 | 0.01 | 0.01 | 0.01 | 91 | 1006.8 |
| 20260505054006 | 43 | 73 | 4.0 | 9.0 | 0.01 | 0.01 | 0.01 | 90 | 1006.9 |
| 20260505053505 | 44 | 64 | 4.0 | 11.0 | 0.01 | 0.01 | 0.01 | 89 | 1006.8 |
| 20260505053005 | 44 | 66 | 5.0 | 13.0 | 0.01 | 0.01 | 0.01 | 89 | 1006.7 |
| 20260505052505 | 44 | 69 | 3.0 | 13.0 | 0.00 | 0.00 | 0.00 | 87 | 1006.6 |
| 20260505052005 | 45 | 76 | 4.0 | 11.0 | 0.00 | 0.00 | 0.00 | 85 | 1006.6 |
| 20260505051505 | 45 | 76 | 4.0 | 11.0 | 0.00 | 0.00 | 0.00 | 85 | 1006.6 |
| 20260505051005 | 45 | 70 | 4.0 | 11.0 | 0.00 | 0.00 | 0.00 | 83 | 1006.8 |
| 20260505050506 | 45 | 61 | 4.0 | 11.0 | 0.00 | 0.00 | 0.00 | 82 | 1006.5 |
| 20260505041505 | 46 | 84 | 3.0 | 4.0 | 0.00 | 0.00 | 0.00 | 81 | 1006.7 |
| 20260505041005 | 47 | 95 | 4.0 | 7.0 | 0.00 | 0.00 | 0.00 | 77 | 1006.7 |
| 20260505040506 | 47 | 87 | 4.0 | 7.0 | 0.00 | 0.00 | 0.00 | 76 | 1006.7 |
| 20260505040005 | 47 | 61 | 2.0 | 4.0 | 0.00 | 0.00 | 0.00 | 75 | 1006.8 |
| 20260505035506 | 47 | 53 | 3.0 | 4.0 | 0.00 | 0.00 | 0.00 | 75 | 1006.6 |
| 20260505035005 | 47 | 49 | 2.0 | 4.0 | 0.00 | 0.00 | 0.00 | 75 | 1006.7 |
| 20260505034506 | 47 | 55 | 2.0 | 4.0 | 0.00 | 0.00 | 0.00 | 76 | 1006.7 |
| 20260505034005 | 47 | 56 | 2.0 | 4.0 | 0.00 | 0.00 | 0.00 | 75 | 1006.8 |